sensor_id;sensor_type;location;lat;lon;timestamp;temperature;humidity
31455;DHT22;18084;53.028;8.834;2023-02-10T00:01:20;3.10;99.90
31455;DHT22;18084;53.028;8.834;2023-02-10T00:06:13;3.10;99.90
31455;DHT22;18084;53.028;8.834;2023-02-10T00:11:07;3.00;99.90
31455;DHT22;18084;53.028;8.834;2023-02-10T00:13:34;2.80;99.90
31455;DHT22;18084;53.028;8.834;2023-02-10T00:16:01;3.00;99.90
31455;DHT22;18084;53.028;8.834;2023-02-10T00:23:18;3.00;99.90
31455;DHT22;18084;53.028;8.834;2023-02-10T00:30:36;3.00;99.90
31455;DHT22;18084;53.028;8.834;2023-02-10T00:33:02;2.80;99.90
31455;DHT22;18084;53.028;8.834;2023-02-10T00:40:20;2.90;99.90
31455;DHT22;18084;53.028;8.834;2023-02-10T00:50:04;3.00;99.90
31455;DHT22;18084;53.028;8.834;2023-02-10T00:52:29;2.90;99.90
31455;DHT22;18084;53.028;8.834;2023-02-10T01:02:14;2.90;99.90
31455;DHT22;18084;53.028;8.834;2023-02-10T01:04:39;2.70;99.90
31455;DHT22;18084;53.028;8.834;2023-02-10T01:07:05;3.00;99.90
31455;DHT22;18084;53.028;8.834;2023-02-10T01:09:30;2.60;99.90
31455;DHT22;18084;53.028;8.834;2023-02-10T01:11:56;2.90;99.90
31455;DHT22;18084;53.028;8.834;2023-02-10T01:14:22;2.60;99.90
31455;DHT22;18084;53.028;8.834;2023-02-10T01:16:47;2.70;99.90
31455;DHT22;18084;53.028;8.834;2023-02-10T01:21:40;3.00;99.90
31455;DHT22;18084;53.028;8.834;2023-02-10T01:24:06;2.60;99.90
31455;DHT22;18084;53.028;8.834;2023-02-10T01:31:23;2.90;99.90
31455;DHT22;18084;53.028;8.834;2023-02-10T01:33:54;2.60;99.90
31455;DHT22;18084;53.028;8.834;2023-02-10T01:36:22;2.60;99.90
31455;DHT22;18084;53.028;8.834;2023-02-10T01:41:16;2.90;99.90
31455;DHT22;18084;53.028;8.834;2023-02-10T01:49:11;2.80;99.90
31455;DHT22;18084;53.028;8.834;2023-02-10T01:52:03;2.50;99.90
31455;DHT22;18084;53.028;8.834;2023-02-10T01:54:33;2.70;99.90
31455;DHT22;18084;53.028;8.834;2023-02-10T01:59:32;2.60;99.90
31455;DHT22;18084;53.028;8.834;2023-02-10T02:01:59;2.30;99.90
31455;DHT22;18084;53.028;8.834;2023-02-10T02:06:54;2.60;99.90
31455;DHT22;18084;53.028;8.834;2023-02-10T02:11:57;2.50;99.90
31455;DHT22;18084;53.028;8.834;2023-02-10T02:14:40;2.50;99.90
31455;DHT22;18084;53.028;8.834;2023-02-10T02:22:51;2.50;99.90
31455;DHT22;18084;53.028;8.834;2023-02-10T02:31:05;2.50;99.90
31455;DHT22;18084;53.028;8.834;2023-02-10T02:33:43;2.50;99.90
31455;DHT22;18084;53.028;8.834;2023-02-10T02:38:38;2.50;99.90
31455;DHT22;18084;53.028;8.834;2023-02-10T02:43:32;2.50;99.90
31455;DHT22;18084;53.028;8.834;2023-02-10T02:46:22;2.30;99.90
31455;DHT22;18084;53.028;8.834;2023-02-10T02:52:14;2.30;99.90
31455;DHT22;18084;53.028;8.834;2023-02-10T02:55:03;2.20;99.90
31455;DHT22;18084;53.028;8.834;2023-02-10T02:57:52;2.10;99.90
31455;DHT22;18084;53.028;8.834;2023-02-10T03:00:24;4.80;99.90
31455;DHT22;18084;53.028;8.834;2023-02-10T03:02:55;1.90;99.90
31455;DHT22;18084;53.028;8.834;2023-02-10T03:05:23;1.90;99.90
31455;DHT22;18084;53.028;8.834;2023-02-10T03:12:49;1.80;99.90
31455;DHT22;18084;53.028;8.834;2023-02-10T03:17:44;1.70;99.90
31455;DHT22;18084;53.028;8.834;2023-02-10T03:20:10;3.10;99.90
31455;DHT22;18084;53.028;8.834;2023-02-10T03:22:36;1.60;99.90
31455;DHT22;18084;53.028;8.834;2023-02-10T03:32:20;1.60;99.90
31455;DHT22;18084;53.028;8.834;2023-02-10T03:42:06;1.60;99.90
31455;DHT22;18084;53.028;8.834;2023-02-10T03:44:32;1.30;99.90
31455;DHT22;18084;53.028;8.834;2023-02-10T03:54:16;1.50;99.90
31455;DHT22;18084;53.028;8.834;2023-02-10T03:56:41;1.10;99.90
31455;DHT22;18084;53.028;8.834;2023-02-10T04:01:33;1.50;99.90
31455;DHT22;18084;53.028;8.834;2023-02-10T04:06:25;4.20;99.90
31455;DHT22;18084;53.028;8.834;2023-02-10T04:13:43;1.40;99.90
31455;DHT22;18084;53.028;8.834;2023-02-10T04:16:11;1.10;99.90
31455;DHT22;18084;53.028;8.834;2023-02-10T04:21:05;1.40;99.90
31455;DHT22;18084;53.028;8.834;2023-02-10T04:23:32;1.40;99.90
31455;DHT22;18084;53.028;8.834;2023-02-10T04:25:58;1.20;99.90
31455;DHT22;18084;53.028;8.834;2023-02-10T04:30:50;1.40;99.90
31455;DHT22;18084;53.028;8.834;2023-02-10T04:45:27;1.40;99.90
31455;DHT22;18084;53.028;8.834;2023-02-10T04:47:53;1.00;99.90
31455;DHT22;18084;53.028;8.834;2023-02-10T04:50:18;1.10;99.90
31455;DHT22;18084;53.028;8.834;2023-02-10T04:55:10;1.30;99.90
31455;DHT22;18084;53.028;8.834;2023-02-10T04:57:35;0.90;99.90
31455;DHT22;18084;53.028;8.834;2023-02-10T05:02:27;1.20;99.90
31455;DHT22;18084;53.028;8.834;2023-02-10T05:04:52;1.00;99.90
31455;DHT22;18084;53.028;8.834;2023-02-10T05:07:18;0.70;99.90
31455;DHT22;18084;53.028;8.834;2023-02-10T05:09:43;0.90;99.90
31455;DHT22;18084;53.028;8.834;2023-02-10T05:12:09;1.10;99.90
31455;DHT22;18084;53.028;8.834;2023-02-10T05:14:34;1.00;99.90
31455;DHT22;18084;53.028;8.834;2023-02-10T05:19:26;1.30;99.90
31455;DHT22;18084;53.028;8.834;2023-02-10T05:24:18;1.20;99.90
31455;DHT22;18084;53.028;8.834;2023-02-10T05:26:43;0.90;99.90
31455;DHT22;18084;53.028;8.834;2023-02-10T05:29:09;0.80;99.90
31455;DHT22;18084;53.028;8.834;2023-02-10T05:36:26;1.10;99.90
31455;DHT22;18084;53.028;8.834;2023-02-10T05:44:02;1.10;99.90
31455;DHT22;18084;53.028;8.834;2023-02-10T05:46:29;1.00;99.90
31455;DHT22;18084;53.028;8.834;2023-02-10T05:51:20;1.10;99.90
31455;DHT22;18084;53.028;8.834;2023-02-10T05:53:46;0.70;99.90
31455;DHT22;18084;53.028;8.834;2023-02-10T05:58:37;1.00;99.90
31455;DHT22;18084;53.028;8.834;2023-02-10T06:01:06;0.70;99.90
31455;DHT22;18084;53.028;8.834;2023-02-10T06:03:33;0.90;99.90
31455;DHT22;18084;53.028;8.834;2023-02-10T06:05:58;0.30;99.90
31455;DHT22;18084;53.028;8.834;2023-02-10T06:10:51;0.80;99.90
31455;DHT22;18084;53.028;8.834;2023-02-10T06:15:42;0.80;99.90
31455;DHT22;18084;53.028;8.834;2023-02-10T06:18:08;0.60;99.90
31455;DHT22;18084;53.028;8.834;2023-02-10T06:23:00;0.80;99.90
31455;DHT22;18084;53.028;8.834;2023-02-10T06:27:51;0.80;99.90
31455;DHT22;18084;53.028;8.834;2023-02-10T06:32:43;0.80;99.90
31455;DHT22;18084;53.028;8.834;2023-02-10T06:37:34;0.70;99.90
31455;DHT22;18084;53.028;8.834;2023-02-10T06:40:02;0.60;99.90
31455;DHT22;18084;53.028;8.834;2023-02-10T06:42:28;0.50;99.90
31455;DHT22;18084;53.028;8.834;2023-02-10T06:44:56;0.30;99.90
31455;DHT22;18084;53.028;8.834;2023-02-10T06:47:22;0.80;99.90
31455;DHT22;18084;53.028;8.834;2023-02-10T06:49:47;0.80;99.90
31455;DHT22;18084;53.028;8.834;2023-02-10T06:52:13;0.40;99.90
31455;DHT22;18084;53.028;8.834;2023-02-10T06:54:38;0.60;99.90
31455;DHT22;18084;53.028;8.834;2023-02-10T06:57:04;0.50;99.90
31455;DHT22;18084;53.028;8.834;2023-02-10T06:59:31;0.50;99.90
31455;DHT22;18084;53.028;8.834;2023-02-10T07:01:57;0.50;99.90
31455;DHT22;18084;53.028;8.834;2023-02-10T07:04:29;0.70;99.90
31455;DHT22;18084;53.028;8.834;2023-02-10T07:06:56;1.00;99.90
31455;DHT22;18084;53.028;8.834;2023-02-10T07:09:22;0.80;99.90
31455;DHT22;18084;53.028;8.834;2023-02-10T07:11:48;0.70;99.90
31455;DHT22;18084;53.028;8.834;2023-02-10T07:16:40;1.00;99.90
31455;DHT22;18084;53.028;8.834;2023-02-10T07:19:05;0.80;99.90
31455;DHT22;18084;53.028;8.834;2023-02-10T07:21:31;0.60;99.90
31455;DHT22;18084;53.028;8.834;2023-02-10T07:26:23;1.10;99.90
31455;DHT22;18084;53.028;8.834;2023-02-10T07:28:49;0.80;99.90
31455;DHT22;18084;53.028;8.834;2023-02-10T07:31:14;0.70;99.90
31455;DHT22;18084;53.028;8.834;2023-02-10T07:36:06;1.20;99.90
31455;DHT22;18084;53.028;8.834;2023-02-10T07:38:32;1.20;99.90
31455;DHT22;18084;53.028;8.834;2023-02-10T07:50:43;1.40;99.90
31455;DHT22;18084;53.028;8.834;2023-02-10T07:53:09;1.20;99.90
31455;DHT22;18084;53.028;8.834;2023-02-10T07:55:36;1.10;99.90
31455;DHT22;18084;53.028;8.834;2023-02-10T07:58:02;1.10;99.90
31455;DHT22;18084;53.028;8.834;2023-02-10T08:00:28;1.40;99.90
31455;DHT22;18084;53.028;8.834;2023-02-10T08:02:53;3.30;99.90
31455;DHT22;18084;53.028;8.834;2023-02-10T08:05:19;1.30;99.90
31455;DHT22;18084;53.028;8.834;2023-02-10T08:07:44;1.60;99.90
31455;DHT22;18084;53.028;8.834;2023-02-10T08:10:10;1.50;99.90
31455;DHT22;18084;53.028;8.834;2023-02-10T08:12:36;1.70;99.90
31455;DHT22;18084;53.028;8.834;2023-02-10T08:15:01;1.80;99.90
31455;DHT22;18084;53.028;8.834;2023-02-10T08:17:27;1.80;99.90
31455;DHT22;18084;53.028;8.834;2023-02-10T08:19:53;1.90;99.90
31455;DHT22;18084;53.028;8.834;2023-02-10T08:22:18;1.90;99.90
31455;DHT22;18084;53.028;8.834;2023-02-10T08:24:44;2.20;99.90
31455;DHT22;18084;53.028;8.834;2023-02-10T08:27:09;2.10;99.90
31455;DHT22;18084;53.028;8.834;2023-02-10T08:29:35;2.10;99.90
31455;DHT22;18084;53.028;8.834;2023-02-10T08:32:00;2.10;99.90
31455;DHT22;18084;53.028;8.834;2023-02-10T08:34:26;2.20;99.90
31455;DHT22;18084;53.028;8.834;2023-02-10T08:36:52;2.40;99.90
31455;DHT22;18084;53.028;8.834;2023-02-10T08:39:18;2.50;99.90
31455;DHT22;18084;53.028;8.834;2023-02-10T08:41:43;2.50;99.90
31455;DHT22;18084;53.028;8.834;2023-02-10T08:44:10;2.90;99.90
31455;DHT22;18084;53.028;8.834;2023-02-10T08:46:36;3.00;99.90
31455;DHT22;18084;53.028;8.834;2023-02-10T08:49:02;3.20;99.90
31455;DHT22;18084;53.028;8.834;2023-02-10T08:56:21;4.90;99.90
31455;DHT22;18084;53.028;8.834;2023-02-10T08:58:47;5.50;99.90
31455;DHT22;18084;53.028;8.834;2023-02-10T09:01:14;6.00;99.90
31455;DHT22;18084;53.028;8.834;2023-02-10T09:03:40;6.50;99.90
31455;DHT22;18084;53.028;8.834;2023-02-10T09:06:11;7.00;97.20
31455;DHT22;18084;53.028;8.834;2023-02-10T09:08:37;7.20;91.70
31455;DHT22;18084;53.028;8.834;2023-02-10T09:11:04;10.10;87.20
31455;DHT22;18084;53.028;8.834;2023-02-10T09:15:55;8.00;86.20
31455;DHT22;18084;53.028;8.834;2023-02-10T09:18:21;7.90;66.10
31455;DHT22;18084;53.028;8.834;2023-02-10T09:20:46;8.20;55.00
31455;DHT22;18084;53.028;8.834;2023-02-10T09:23:12;8.20;8.00
31455;DHT22;18084;53.028;8.834;2023-02-10T09:25:37;8.30;1.00
31455;DHT22;18084;53.028;8.834;2023-02-10T09:28:03;8.40;1.00
31455;DHT22;18084;53.028;8.834;2023-02-10T09:30:28;8.60;15.90
31455;DHT22;18084;53.028;8.834;2023-02-10T09:32:54;8.60;1.00
31455;DHT22;18084;53.028;8.834;2023-02-10T09:35:19;9.50;1.00
31455;DHT22;18084;53.028;8.834;2023-02-10T09:37:46;9.30;1.00
31455;DHT22;18084;53.028;8.834;2023-02-10T09:40:20;9.30;1.00
31455;DHT22;18084;53.028;8.834;2023-02-10T09:45:19;9.10;1.00
31455;DHT22;18084;53.028;8.834;2023-02-10T09:47:59;9.10;1.00
31455;DHT22;18084;53.028;8.834;2023-02-10T09:50:57;9.40;1.00
31455;DHT22;18084;53.028;8.834;2023-02-10T09:53:26;9.80;1.00
31455;DHT22;18084;53.028;8.834;2023-02-10T09:55:59;9.80;1.00
31455;DHT22;18084;53.028;8.834;2023-02-10T10:01:16;9.70;1.00
31455;DHT22;18084;53.028;8.834;2023-02-10T10:06:22;9.50;1.00
31455;DHT22;18084;53.028;8.834;2023-02-10T10:11:44;9.60;1.00
31455;DHT22;18084;53.028;8.834;2023-02-10T10:14:19;9.40;1.00
31455;DHT22;18084;53.028;8.834;2023-02-10T10:31:34;9.00;1.00
31455;DHT22;18084;53.028;8.834;2023-02-10T10:34:12;9.10;3.80
31455;DHT22;18084;53.028;8.834;2023-02-10T10:36:43;9.20;1.00
31455;DHT22;18084;53.028;8.834;2023-02-10T10:39:30;8.70;1.00
31455;DHT22;18084;53.028;8.834;2023-02-10T10:42:01;8.90;10.70
31455;DHT22;18084;53.028;8.834;2023-02-10T10:44:30;8.50;34.20
31455;DHT22;18084;53.028;8.834;2023-02-10T10:49:42;8.60;23.10
31455;DHT22;18084;53.028;8.834;2023-02-10T10:52:21;8.40;24.60
31455;DHT22;18084;53.028;8.834;2023-02-10T10:54:48;8.50;34.20
31455;DHT22;18084;53.028;8.834;2023-02-10T10:57:13;8.20;36.20
31455;DHT22;18084;53.028;8.834;2023-02-10T10:59:48;8.10;55.80
31455;DHT22;18084;53.028;8.834;2023-02-10T11:02:18;8.00;52.50
31455;DHT22;18084;53.028;8.834;2023-02-10T11:04:44;8.00;66.00
31455;DHT22;18084;53.028;8.834;2023-02-10T11:07:16;7.80;67.50
31455;DHT22;18084;53.028;8.834;2023-02-10T11:09:50;7.70;67.90
31455;DHT22;18084;53.028;8.834;2023-02-10T11:14:50;8.40;56.80
31455;DHT22;18084;53.028;8.834;2023-02-10T11:17:34;8.30;54.70
31455;DHT22;18084;53.028;8.834;2023-02-10T11:20:21;8.40;43.60
31455;DHT22;18084;53.028;8.834;2023-02-10T11:23:00;8.30;49.80
31455;DHT22;18084;53.028;8.834;2023-02-10T11:25:28;8.30;49.90
31455;DHT22;18084;53.028;8.834;2023-02-10T11:27:55;8.40;40.20
31455;DHT22;18084;53.028;8.834;2023-02-10T11:30:36;8.20;61.40
31455;DHT22;18084;53.028;8.834;2023-02-10T11:33:04;8.30;60.00
31455;DHT22;18084;53.028;8.834;2023-02-10T11:35:31;8.30;56.40
31455;DHT22;18084;53.028;8.834;2023-02-10T11:38:07;9.40;51.00
31455;DHT22;18084;53.028;8.834;2023-02-10T11:43:17;8.40;54.20
31455;DHT22;18084;53.028;8.834;2023-02-10T11:45:55;7.90;61.10
31455;DHT22;18084;53.028;8.834;2023-02-10T11:48:23;7.90;69.40
31455;DHT22;18084;53.028;8.834;2023-02-10T11:51:00;8.40;72.60
31455;DHT22;18084;53.028;8.834;2023-02-10T11:53:32;7.50;73.90
31455;DHT22;18084;53.028;8.834;2023-02-10T11:58:59;7.70;70.40
31455;DHT22;18084;53.028;8.834;2023-02-10T12:07:18;7.50;65.10
31455;DHT22;18084;53.028;8.834;2023-02-10T12:09:59;7.40;79.80
31455;DHT22;18084;53.028;8.834;2023-02-10T12:25:47;7.60;51.20
31455;DHT22;18084;53.028;8.834;2023-02-10T12:28:46;7.60;52.40
31455;DHT22;18084;53.028;8.834;2023-02-10T12:34:30;7.40;66.80
31455;DHT22;18084;53.028;8.834;2023-02-10T12:37:25;7.50;76.10
31455;DHT22;18084;53.028;8.834;2023-02-10T12:54:08;7.30;75.60
31455;DHT22;18084;53.028;8.834;2023-02-10T12:56:51;7.50;67.60
31455;DHT22;18084;53.028;8.834;2023-02-10T12:59:28;7.60;69.60
31455;DHT22;18084;53.028;8.834;2023-02-10T13:02:14;7.70;51.70
31455;DHT22;18084;53.028;8.834;2023-02-10T13:04:48;7.90;53.90
31455;DHT22;18084;53.028;8.834;2023-02-10T13:10:39;7.60;45.40
31455;DHT22;18084;53.028;8.834;2023-02-10T13:13:31;7.90;49.60
31455;DHT22;18084;53.028;8.834;2023-02-10T13:16:08;7.80;48.00
31455;DHT22;18084;53.028;8.834;2023-02-10T13:18:48;7.80;51.50
31455;DHT22;18084;53.028;8.834;2023-02-10T13:21:48;7.80;47.50
31455;DHT22;18084;53.028;8.834;2023-02-10T13:24:19;7.90;40.50
31455;DHT22;18084;53.028;8.834;2023-02-10T13:29:20;7.70;38.70
31455;DHT22;18084;53.028;8.834;2023-02-10T13:34:34;7.90;53.30
31455;DHT22;18084;53.028;8.834;2023-02-10T13:39:56;7.90;41.90
31455;DHT22;18084;53.028;8.834;2023-02-10T13:42:27;8.00;48.80
31455;DHT22;18084;53.028;8.834;2023-02-10T13:53:04;8.30;17.10
31455;DHT22;18084;53.028;8.834;2023-02-10T13:58:23;8.10;22.40
31455;DHT22;18084;53.028;8.834;2023-02-10T14:00:53;8.00;28.50
31455;DHT22;18084;53.028;8.834;2023-02-10T14:03:45;8.00;21.70
31455;DHT22;18084;53.028;8.834;2023-02-10T14:06:19;8.20;38.60
31455;DHT22;18084;53.028;8.834;2023-02-10T14:09:03;8.40;21.90
31455;DHT22;18084;53.028;8.834;2023-02-10T14:11:40;8.30;8.70
31455;DHT22;18084;53.028;8.834;2023-02-10T14:14:54;8.30;7.60
31455;DHT22;18084;53.028;8.834;2023-02-10T14:19:47;8.00;18.20
31455;DHT22;18084;53.028;8.834;2023-02-10T14:22:35;8.00;24.20
31455;DHT22;18084;53.028;8.834;2023-02-10T14:25:16;7.80;36.40
31455;DHT22;18084;53.028;8.834;2023-02-10T14:27:48;7.90;40.00
31455;DHT22;18084;53.028;8.834;2023-02-10T14:30:26;7.80;34.00
31455;DHT22;18084;53.028;8.834;2023-02-10T14:32:52;7.80;37.20
31455;DHT22;18084;53.028;8.834;2023-02-10T14:35:22;7.90;36.80
31455;DHT22;18084;53.028;8.834;2023-02-10T14:37:52;7.80;34.80
31455;DHT22;18084;53.028;8.834;2023-02-10T14:40:20;7.80;33.70
31455;DHT22;18084;53.028;8.834;2023-02-10T14:42:47;7.70;37.10
31455;DHT22;18084;53.028;8.834;2023-02-10T14:45:22;7.70;34.70
31455;DHT22;18084;53.028;8.834;2023-02-10T14:47:49;7.70;31.50
31455;DHT22;18084;53.028;8.834;2023-02-10T14:50:32;7.80;35.40
31455;DHT22;18084;53.028;8.834;2023-02-10T14:52:59;7.60;41.80
31455;DHT22;18084;53.028;8.834;2023-02-10T14:58:15;7.50;30.00
31455;DHT22;18084;53.028;8.834;2023-02-10T15:03:23;7.50;26.60
31455;DHT22;18084;53.028;8.834;2023-02-10T15:05:50;7.40;26.60
31455;DHT22;18084;53.028;8.834;2023-02-10T15:08:22;7.40;28.20
31455;DHT22;18084;53.028;8.834;2023-02-10T15:10:51;7.30;29.60
31455;DHT22;18084;53.028;8.834;2023-02-10T15:13:26;7.30;35.20
31455;DHT22;18084;53.028;8.834;2023-02-10T15:15:56;7.70;35.00
31455;DHT22;18084;53.028;8.834;2023-02-10T15:18:25;7.30;26.20
31455;DHT22;18084;53.028;8.834;2023-02-10T15:21:01;7.20;28.30
31455;DHT22;18084;53.028;8.834;2023-02-10T15:23:28;7.20;21.80
31455;DHT22;18084;53.028;8.834;2023-02-10T15:28:30;7.20;17.70
31455;DHT22;18084;53.028;8.834;2023-02-10T15:33:56;7.20;18.60
31455;DHT22;18084;53.028;8.834;2023-02-10T15:36:44;7.10;16.90
31455;DHT22;18084;53.028;8.834;2023-02-10T15:39:36;7.10;23.00
31455;DHT22;18084;53.028;8.834;2023-02-10T15:44:39;6.90;28.40
31455;DHT22;18084;53.028;8.834;2023-02-10T15:49:44;6.80;35.70
31455;DHT22;18084;53.028;8.834;2023-02-10T15:52:34;6.70;42.30
31455;DHT22;18084;53.028;8.834;2023-02-10T15:55:12;6.70;45.10
31455;DHT22;18084;53.028;8.834;2023-02-10T15:57:38;6.60;48.50
31455;DHT22;18084;53.028;8.834;2023-02-10T16:00:05;7.30;53.30
31455;DHT22;18084;53.028;8.834;2023-02-10T16:02:31;6.40;57.90
31455;DHT22;18084;53.028;8.834;2023-02-10T16:04:57;6.40;62.30
31455;DHT22;18084;53.028;8.834;2023-02-10T16:07:25;6.30;66.40
31455;DHT22;18084;53.028;8.834;2023-02-10T16:09:52;6.30;69.20
31455;DHT22;18084;53.028;8.834;2023-02-10T16:12:19;6.20;70.50
31455;DHT22;18084;53.028;8.834;2023-02-10T16:14:44;6.20;74.40
31455;DHT22;18084;53.028;8.834;2023-02-10T16:17:10;6.10;76.40
31455;DHT22;18084;53.028;8.834;2023-02-10T16:19:41;6.00;78.80
31455;DHT22;18084;53.028;8.834;2023-02-10T16:22:08;6.00;80.10
31455;DHT22;18084;53.028;8.834;2023-02-10T16:24:33;5.90;82.50
31455;DHT22;18084;53.028;8.834;2023-02-10T16:26:59;5.90;85.50
31455;DHT22;18084;53.028;8.834;2023-02-10T16:29:28;5.80;87.80
31455;DHT22;18084;53.028;8.834;2023-02-10T16:31:54;5.70;90.00
31455;DHT22;18084;53.028;8.834;2023-02-10T16:34:20;5.60;91.60
31455;DHT22;18084;53.028;8.834;2023-02-10T16:36:46;5.70;92.40
31455;DHT22;18084;53.028;8.834;2023-02-10T16:39:12;5.60;93.10
31455;DHT22;18084;53.028;8.834;2023-02-10T16:41:38;5.60;93.70
31455;DHT22;18084;53.028;8.834;2023-02-10T16:44:04;6.90;94.10
31455;DHT22;18084;53.028;8.834;2023-02-10T16:46:29;5.50;95.20
31455;DHT22;18084;53.028;8.834;2023-02-10T16:48:55;5.50;95.80
31455;DHT22;18084;53.028;8.834;2023-02-10T16:51:20;5.40;96.90
31455;DHT22;18084;53.028;8.834;2023-02-10T16:53:46;5.40;96.80
31455;DHT22;18084;53.028;8.834;2023-02-10T16:56:18;5.40;96.90
31455;DHT22;18084;53.028;8.834;2023-02-10T16:58:43;5.40;97.70
31455;DHT22;18084;53.028;8.834;2023-02-10T17:01:08;5.40;97.70
31455;DHT22;18084;53.028;8.834;2023-02-10T17:03:34;5.30;98.60
31455;DHT22;18084;53.028;8.834;2023-02-10T17:06:00;5.20;98.70
31455;DHT22;18084;53.028;8.834;2023-02-10T17:08:25;6.60;99.00
31455;DHT22;18084;53.028;8.834;2023-02-10T17:10:51;6.20;99.50
31455;DHT22;18084;53.028;8.834;2023-02-10T17:13:17;5.10;99.50
31455;DHT22;18084;53.028;8.834;2023-02-10T17:15:43;5.10;99.50
31455;DHT22;18084;53.028;8.834;2023-02-10T17:18:08;5.10;99.90
31455;DHT22;18084;53.028;8.834;2023-02-10T17:20:35;5.90;99.90
31455;DHT22;18084;53.028;8.834;2023-02-10T17:23:01;5.00;99.90
31455;DHT22;18084;53.028;8.834;2023-02-10T17:25:28;5.00;99.90
31455;DHT22;18084;53.028;8.834;2023-02-10T17:27:54;4.90;99.90
31455;DHT22;18084;53.028;8.834;2023-02-10T17:30:20;5.00;99.90
31455;DHT22;18084;53.028;8.834;2023-02-10T17:32:47;4.90;99.90
31455;DHT22;18084;53.028;8.834;2023-02-10T17:35:13;4.90;99.90
31455;DHT22;18084;53.028;8.834;2023-02-10T17:37:39;5.00;99.90
31455;DHT22;18084;53.028;8.834;2023-02-10T17:40:05;5.10;99.90
31455;DHT22;18084;53.028;8.834;2023-02-10T17:42:36;5.10;99.90
31455;DHT22;18084;53.028;8.834;2023-02-10T17:45:01;5.10;99.90
31455;DHT22;18084;53.028;8.834;2023-02-10T17:47:27;5.10;99.90
31455;DHT22;18084;53.028;8.834;2023-02-10T17:49:52;5.10;99.90
31455;DHT22;18084;53.028;8.834;2023-02-10T17:52:18;4.90;99.90
31455;DHT22;18084;53.028;8.834;2023-02-10T17:54:43;5.10;99.90
31455;DHT22;18084;53.028;8.834;2023-02-10T17:57:09;5.10;99.90
31455;DHT22;18084;53.028;8.834;2023-02-10T17:59:40;5.10;99.70
31455;DHT22;18084;53.028;8.834;2023-02-10T18:02:09;5.20;98.90
31455;DHT22;18084;53.028;8.834;2023-02-10T18:04:35;5.20;98.30
31455;DHT22;18084;53.028;8.834;2023-02-10T18:07:00;5.10;98.30
31455;DHT22;18084;53.028;8.834;2023-02-10T18:09:26;6.50;98.30
31455;DHT22;18084;53.028;8.834;2023-02-10T18:11:53;5.20;98.50
31455;DHT22;18084;53.028;8.834;2023-02-10T18:14:19;7.10;99.30
31455;DHT22;18084;53.028;8.834;2023-02-10T18:16:44;5.20;97.10
31455;DHT22;18084;53.028;8.834;2023-02-10T18:19:10;5.20;97.30
31455;DHT22;18084;53.028;8.834;2023-02-10T18:21:35;7.10;98.30
31455;DHT22;18084;53.028;8.834;2023-02-10T18:24:01;5.10;99.00
31455;DHT22;18084;53.028;8.834;2023-02-10T18:26:26;6.30;99.90
31455;DHT22;18084;53.028;8.834;2023-02-10T18:28:52;5.10;99.90
31455;DHT22;18084;53.028;8.834;2023-02-10T18:31:18;5.10;99.90
31455;DHT22;18084;53.028;8.834;2023-02-10T18:33:44;5.10;99.90
31455;DHT22;18084;53.028;8.834;2023-02-10T18:36:14;5.10;99.90
31455;DHT22;18084;53.028;8.834;2023-02-10T18:38:40;5.00;99.90
31455;DHT22;18084;53.028;8.834;2023-02-10T18:41:05;5.00;99.90
31455;DHT22;18084;53.028;8.834;2023-02-10T18:43:31;4.90;99.90
31455;DHT22;18084;53.028;8.834;2023-02-10T18:45:57;4.90;99.90
31455;DHT22;18084;53.028;8.834;2023-02-10T18:48:22;4.90;99.90
31455;DHT22;18084;53.028;8.834;2023-02-10T18:50:48;4.90;99.90
31455;DHT22;18084;53.028;8.834;2023-02-10T18:53:15;4.90;99.90
31455;DHT22;18084;53.028;8.834;2023-02-10T18:55:41;5.00;99.90
31455;DHT22;18084;53.028;8.834;2023-02-10T18:58:09;5.00;99.90
31455;DHT22;18084;53.028;8.834;2023-02-10T19:00:35;5.00;99.90
31455;DHT22;18084;53.028;8.834;2023-02-10T19:03:03;5.10;99.90
31455;DHT22;18084;53.028;8.834;2023-02-10T19:05:29;5.00;99.90
31455;DHT22;18084;53.028;8.834;2023-02-10T19:07:54;5.00;99.90
31455;DHT22;18084;53.028;8.834;2023-02-10T19:10:20;5.40;99.90
31455;DHT22;18084;53.028;8.834;2023-02-10T19:12:46;5.00;99.90
31455;DHT22;18084;53.028;8.834;2023-02-10T19:15:11;5.10;99.90
31455;DHT22;18084;53.028;8.834;2023-02-10T19:17:37;5.10;99.90
31455;DHT22;18084;53.028;8.834;2023-02-10T19:20:05;5.10;99.90
31455;DHT22;18084;53.028;8.834;2023-02-10T19:22:31;5.10;99.90
31455;DHT22;18084;53.028;8.834;2023-02-10T19:24:57;5.10;99.90
31455;DHT22;18084;53.028;8.834;2023-02-10T19:27:22;5.10;99.90
31455;DHT22;18084;53.028;8.834;2023-02-10T19:29:47;5.10;99.90
31455;DHT22;18084;53.028;8.834;2023-02-10T19:32:13;5.10;99.90
31455;DHT22;18084;53.028;8.834;2023-02-10T19:34:38;5.10;99.90
31455;DHT22;18084;53.028;8.834;2023-02-10T19:37:04;5.10;99.90
31455;DHT22;18084;53.028;8.834;2023-02-10T19:39:29;5.10;99.90
31455;DHT22;18084;53.028;8.834;2023-02-10T19:41:56;5.10;99.90
31455;DHT22;18084;53.028;8.834;2023-02-10T19:44:22;5.20;99.90
31455;DHT22;18084;53.028;8.834;2023-02-10T19:46:48;5.20;99.90
31455;DHT22;18084;53.028;8.834;2023-02-10T19:49:14;5.30;99.90
31455;DHT22;18084;53.028;8.834;2023-02-10T19:51:41;5.30;99.90
31455;DHT22;18084;53.028;8.834;2023-02-10T19:54:09;5.30;99.90
31455;DHT22;18084;53.028;8.834;2023-02-10T19:56:35;6.10;99.90
31455;DHT22;18084;53.028;8.834;2023-02-10T19:59:03;5.30;99.90
31455;DHT22;18084;53.028;8.834;2023-02-10T20:01:30;5.30;99.90
31455;DHT22;18084;53.028;8.834;2023-02-10T20:03:56;5.30;99.90
31455;DHT22;18084;53.028;8.834;2023-02-10T20:06:26;5.20;99.90
31455;DHT22;18084;53.028;8.834;2023-02-10T20:08:52;5.20;99.90
31455;DHT22;18084;53.028;8.834;2023-02-10T20:11:18;5.20;99.90
31455;DHT22;18084;53.028;8.834;2023-02-10T20:13:44;5.20;99.90
31455;DHT22;18084;53.028;8.834;2023-02-10T20:16:10;6.30;99.90
31455;DHT22;18084;53.028;8.834;2023-02-10T20:18:36;5.20;99.90
31455;DHT22;18084;53.028;8.834;2023-02-10T20:21:01;6.00;99.90
31455;DHT22;18084;53.028;8.834;2023-02-10T20:23:30;5.30;99.90
31455;DHT22;18084;53.028;8.834;2023-02-10T20:25:55;5.30;99.90
31455;DHT22;18084;53.028;8.834;2023-02-10T20:28:22;5.30;99.90
31455;DHT22;18084;53.028;8.834;2023-02-10T20:30:49;5.30;99.90
31455;DHT22;18084;53.028;8.834;2023-02-10T20:33:14;5.30;99.90
31455;DHT22;18084;53.028;8.834;2023-02-10T20:35:40;5.40;99.90
31455;DHT22;18084;53.028;8.834;2023-02-10T20:38:06;5.40;99.90
31455;DHT22;18084;53.028;8.834;2023-02-10T20:40:31;5.40;99.90
31455;DHT22;18084;53.028;8.834;2023-02-10T20:42:57;5.50;99.90
31455;DHT22;18084;53.028;8.834;2023-02-10T20:45:23;5.50;99.90
31455;DHT22;18084;53.028;8.834;2023-02-10T20:47:48;5.50;99.90
31455;DHT22;18084;53.028;8.834;2023-02-10T20:50:14;5.40;99.90
31455;DHT22;18084;53.028;8.834;2023-02-10T20:52:39;5.60;99.90
31455;DHT22;18084;53.028;8.834;2023-02-10T20:55:08;5.60;99.90
31455;DHT22;18084;53.028;8.834;2023-02-10T20:57:33;5.60;99.90
31455;DHT22;18084;53.028;8.834;2023-02-10T20:59:59;5.60;99.90
31455;DHT22;18084;53.028;8.834;2023-02-10T21:02:24;5.70;99.90
31455;DHT22;18084;53.028;8.834;2023-02-10T21:04:50;5.60;99.90
31455;DHT22;18084;53.028;8.834;2023-02-10T21:07:16;5.70;99.90